Time;durP1;ratioP1;P1;durP2;ratioP2;P2;SDS_P1;SDS_P2;PMS_P1;PMS_P2;Temp;Humidity;BMP_temperature;BMP_pressure;BME280_temperature;BME280_humidity;BME280_pressure;Samples;Min_cycle;Max_cycle;Signal;HPM_P1;HPM_P2
2021/05/03 00:01:52;;;;;;;;;;;14.90;47.10;;;;;;5074526;27;75142;-65
2021/05/03 00:04:17;;;;;;;;;;;14.90;47.30;;;;;;5074096;27;74629;-63
2021/05/03 00:06:43;;;;;;;;;;;14.90;47.50;;;;;;5074753;27;75468;-69
2021/05/03 00:09:08;;;;;;;;;;;14.90;47.60;;;;;;5074392;27;75182;-65
2021/05/03 00:11:34;;;;;;;;;;;14.80;47.70;;;;;;5074475;27;75604;-62
2021/05/03 00:14:00;;;;;;;;;;;14.80;48.10;;;;;;5073952;27;75619;-67
2021/05/03 00:16:26;;;;;;;;;;;14.80;47.90;;;;;;5074603;27;74918;-64
2021/05/03 00:18:51;;;;;;;;;;;14.80;48.10;;;;;;5074512;27;75136;-63
2021/05/03 00:21:17;;;;;;;;;;;14.70;48.40;;;;;;5074243;27;75271;-62
2021/05/03 00:23:43;;;;;;;;;;;14.70;48.60;;;;;;5072408;27;76090;-63
2021/05/03 00:26:11;;;;;;;;;;;14.70;48.70;;;;;;5074045;27;75658;-61
2021/05/03 00:28:36;;;;;;;;;;;14.70;48.80;;;;;;5074397;27;74520;-64
2021/05/03 00:31:02;;;;;;;;;;;14.80;48.70;;;;;;5074117;27;74430;-64
2021/05/03 00:33:28;;;;;;;;;;;14.70;49.00;;;;;;5071966;27;77105;-66
2021/05/03 00:35:53;;;;;;;;;;;14.80;48.90;;;;;;5074066;27;75111;-66
2021/05/03 00:38:19;;;;;;;;;;;14.70;49.30;;;;;;5072108;27;75325;-66
2021/05/03 00:40:44;;;;;;;;;;;14.80;49.80;;;;;;5074486;27;74729;-64
2021/05/03 00:43:16;;;;;;;;;;;14.80;49.50;;;;;;5072207;27;75444;-62
2021/05/03 00:45:42;;;;;;;;;;;14.70;49.30;;;;;;5072096;27;76970;-63
2021/05/03 00:48:08;;;;;;;;;;;14.70;49.40;;;;;;5073764;27;74549;-64
2021/05/03 00:50:33;;;;;;;;;;;14.70;49.50;;;;;;5072058;27;77575;-68
2021/05/03 00:52:59;;;;;;;;;;;14.80;49.60;;;;;;5074051;27;75182;-63
2021/05/03 00:55:27;;;;;;;;;;;14.80;49.50;;;;;;5071884;27;77676;-63
2021/05/03 00:57:52;;;;;;;;;;;14.80;49.70;;;;;;5071891;27;75507;-62
2021/05/03 01:00:18;;;;;;;;;;;14.80;49.70;;;;;;5073515;27;75480;-65
2021/05/03 01:02:44;;;;;;;;;;;14.80;49.90;;;;;;5073712;27;74831;-65
2021/05/03 01:05:10;;;;;;;;;;;14.70;49.90;;;;;;5072652;27;75083;-67
2021/05/03 01:07:36;;;;;;;;;;;14.70;50.20;;;;;;5073778;27;74615;-68
2021/05/03 01:10:02;;;;;;;;;;;14.70;50.10;;;;;;5073672;27;75039;-72
2021/05/03 01:12:27;;;;;;;;;;;14.70;50.10;;;;;;5073182;27;74767;-66
2021/05/03 01:14:53;;;;;;;;;;;14.70;50.10;;;;;;5071638;27;74765;-65
2021/05/03 01:17:28;;;;;;;;;;;14.70;50.20;;;;;;5071635;27;76583;-64
2021/05/03 01:19:53;;;;;;;;;;;14.70;50.10;;;;;;5071734;27;75548;-65
2021/05/03 01:22:19;;;;;;;;;;;14.70;50.10;;;;;;5073142;27;75159;-66
2021/05/03 01:24:45;;;;;;;;;;;14.60;50.20;;;;;;5072770;27;75061;-65
2021/05/03 01:27:10;;;;;;;;;;;14.70;50.20;;;;;;5071430;27;75647;-61
2021/05/03 01:29:36;;;;;;;;;;;14.70;50.50;;;;;;5073081;27;74439;-64
2021/05/03 01:32:01;;;;;;;;;;;14.70;50.30;;;;;;5071497;27;78381;-64
2021/05/03 01:34:27;;;;;;;;;;;14.70;50.60;;;;;;5073185;27;74444;-62
2021/05/03 01:36:53;;;;;;;;;;;14.70;50.50;;;;;;5073472;27;75194;-65
2021/05/03 01:39:18;;;;;;;;;;;14.70;50.60;;;;;;5073276;27;75302;-66
2021/05/03 01:41:44;;;;;;;;;;;14.70;50.40;;;;;;5073186;27;75820;-62
2021/05/03 01:44:11;;;;;;;;;;;14.70;50.60;;;;;;5073236;27;74668;-69
2021/05/03 01:46:38;;;;;;;;;;;14.70;50.80;;;;;;5070860;27;75981;-67
2021/05/03 01:49:04;;;;;;;;;;;14.70;50.70;;;;;;5072852;27;75193;-71
2021/05/03 01:51:30;;;;;;;;;;;14.70;50.80;;;;;;5072613;27;75268;-70
2021/05/03 01:53:56;;;;;;;;;;;14.60;50.60;;;;;;5071140;27;77217;-68
2021/05/03 01:56:25;;;;;;;;;;;14.60;50.60;;;;;;5072937;27;75495;-70
2021/05/03 01:58:51;;;;;;;;;;;14.60;50.70;;;;;;5072823;27;74697;-70
2021/05/03 02:01:17;;;;;;;;;;;14.60;50.90;;;;;;5071096;27;76387;-68
2021/05/03 02:03:42;;;;;;;;;;;14.50;51.10;;;;;;5070942;27;76327;-70
2021/05/03 02:06:08;;;;;;;;;;;14.50;51.10;;;;;;5070510;27;77302;-67
2021/05/03 02:08:33;;;;;;;;;;;14.50;51.20;;;;;;5072653;27;75087;-64
2021/05/03 02:10:59;;;;;;;;;;;14.50;51.30;;;;;;5072807;27;74862;-67
2021/05/03 02:13:26;;;;;;;;;;;14.50;51.60;;;;;;5070976;27;76707;-65
2021/05/03 02:15:52;;;;;;;;;;;14.50;51.60;;;;;;5070911;27;77999;-66
2021/05/03 02:18:18;;;;;;;;;;;14.50;51.60;;;;;;5075817;27;75030;-64
2021/05/03 02:20:44;;;;;;;;;;;14.40;51.80;;;;;;5076744;27;74595;-62
2021/05/03 02:23:10;;;;;;;;;;;14.50;51.80;;;;;;5074489;27;75463;-63
2021/05/03 02:25:36;;;;;;;;;;;14.50;51.80;;;;;;5076324;27;75160;-64
2021/05/03 02:28:02;;;;;;;;;;;14.50;51.80;;;;;;5076186;27;75318;-61
2021/05/03 02:30:27;;;;;;;;;;;14.50;51.70;;;;;;5074438;27;77252;-62
2021/05/03 02:32:53;;;;;;;;;;;14.50;51.80;;;;;;5075719;27;74618;-65
2021/05/03 02:35:20;;;;;;;;;;;14.50;51.70;;;;;;5074272;27;77394;-62
2021/05/03 02:37:49;;;;;;;;;;;14.50;51.80;;;;;;5074395;27;75606;-64
2021/05/03 02:40:15;;;;;;;;;;;14.50;51.60;;;;;;5074323;27;77519;-65
2021/05/03 02:42:41;;;;;;;;;;;14.50;51.90;;;;;;5074333;27;76517;-66
2021/05/03 02:45:07;;;;;;;;;;;14.50;52.00;;;;;;5075932;27;74469;-63
2021/05/03 02:47:32;;;;;;;;;;;14.50;52.20;;;;;;5074146;27;75210;-62
2021/05/03 02:49:58;;;;;;;;;;;14.50;52.10;;;;;;5075891;27;74470;-62
2021/05/03 02:52:23;;;;;;;;;;;14.50;52.10;;;;;;5074229;27;75289;-63
2021/05/03 02:54:49;;;;;;;;;;;14.50;52.20;;;;;;5075395;27;74940;-62
2021/05/03 02:57:15;;;;;;;;;;;14.50;52.20;;;;;;5075913;27;75210;-63
2021/05/03 02:59:41;;;;;;;;;;;14.40;52.10;;;;;;5074592;27;75339;-67
2021/05/03 03:02:07;;;;;;;;;;;14.40;52.20;;;;;;5073797;27;77687;-70
2021/05/03 03:04:33;;;;;;;;;;;14.40;52.50;;;;;;5075125;27;75583;-69
2021/05/03 03:06:59;;;;;;;;;;;14.40;52.80;;;;;;5073525;27;76548;-67
2021/05/03 03:09:24;;;;;;;;;;;14.30;52.80;;;;;;5073892;27;77946;-68
2021/05/03 03:11:50;;;;;;;;;;;14.30;52.80;;;;;;5073917;27;77847;-61
2021/05/03 03:14:16;;;;;;;;;;;14.30;52.80;;;;;;5075355;27;75474;-60
2021/05/03 03:16:41;;;;;;;;;;;14.30;52.80;;;;;;5073966;27;77028;-63
2021/05/03 03:19:07;;;;;;;;;;;14.30;53.00;;;;;;5073456;27;78071;-64
2021/05/03 03:21:33;;;;;;;;;;;14.30;53.10;;;;;;5075477;27;75466;-67
2021/05/03 03:23:59;;;;;;;;;;;14.30;53.10;;;;;;5073229;27;77478;-61
2021/05/03 03:26:24;;;;;;;;;;;14.20;53.30;;;;;;5075122;27;75094;-65
2021/05/03 03:28:50;;;;;;;;;;;14.20;53.40;;;;;;5072941;27;76275;-68
2021/05/03 03:31:16;;;;;;;;;;;14.30;53.50;;;;;;5073305;27;75416;-66
2021/05/03 03:33:41;;;;;;;;;;;14.20;53.40;;;;;;5074666;27;75361;-70
2021/05/03 03:36:07;;;;;;;;;;;14.20;53.50;;;;;;5073243;27;77290;-64
2021/05/03 03:38:36;;;;;;;;;;;14.30;53.30;;;;;;5075192;27;75247;-69
2021/05/03 03:41:01;;;;;;;;;;;14.20;53.50;;;;;;5073244;27;75639;-66
2021/05/03 03:43:27;;;;;;;;;;;14.30;53.40;;;;;;5073399;27;75311;-66
2021/05/03 03:45:53;;;;;;;;;;;14.20;53.60;;;;;;5073898;27;77251;-67
2021/05/03 03:48:18;;;;;;;;;;;14.30;53.70;;;;;;5074483;27;75210;-68
2021/05/03 03:50:44;;;;;;;;;;;14.30;53.60;;;;;;5073610;27;78039;-66
2021/05/03 03:53:09;;;;;;;;;;;14.20;53.60;;;;;;5072821;27;74652;-69
2021/05/03 03:55:35;;;;;;;;;;;14.20;53.80;;;;;;5072942;27;75922;-68
2021/05/03 03:58:01;;;;;;;;;;;14.20;53.80;;;;;;5072974;27;74400;-66
2021/05/03 04:00:27;;;;;;;;;;;14.10;53.80;;;;;;5073343;27;74574;-65
2021/05/03 04:02:53;;;;;;;;;;;14.10;53.90;;;;;;5072875;27;77487;-65
2021/05/03 04:08:11;;;;;;;;;;;14.10;54.10;;;;;;5071266;27;75068;-64
2021/05/03 04:21:08;;;;;;;;;;;14.10;54.20;;;;;;5050248;28;74982;-66
2021/05/03 04:26:12;;;;;;;;;;;14.20;53.90;;;;;;5038587;28;75202;-68
2021/05/03 04:28:38;;;;;;;;;;;14.20;54.10;;;;;;5052080;28;77745;-68
2021/05/03 04:31:04;;;;;;;;;;;14.20;54.10;;;;;;5052510;28;76363;-63
2021/05/03 04:33:29;;;;;;;;;;;14.20;54.00;;;;;;5069476;27;74659;-68
2021/05/03 04:35:55;;;;;;;;;;;14.20;54.10;;;;;;5052123;28;74626;-66
2021/05/03 04:38:20;;;;;;;;;;;14.20;54.00;;;;;;5053674;27;75592;-69
2021/05/03 04:40:46;;;;;;;;;;;14.20;54.10;;;;;;5052989;28;75727;-67
2021/05/03 04:43:12;;;;;;;;;;;14.20;54.20;;;;;;5053999;28;74666;-65
2021/05/03 04:45:38;;;;;;;;;;;14.20;54.10;;;;;;5051973;27;76120;-64
2021/05/03 04:48:04;;;;;;;;;;;14.10;54.20;;;;;;5051916;28;74753;-63
2021/05/03 04:50:29;;;;;;;;;;;14.10;54.30;;;;;;5051740;28;76536;-64
2021/05/03 04:52:55;;;;;;;;;;;14.10;54.20;;;;;;5053544;28;75192;-64
2021/05/03 04:55:20;;;;;;;;;;;14.20;54.40;;;;;;5051656;28;76439;-65
2021/05/03 04:57:46;;;;;;;;;;;14.10;54.20;;;;;;5051727;28;78104;-65
2021/05/03 05:00:12;;;;;;;;;;;14.20;54.10;;;;;;5052104;28;74606;-62
2021/05/03 05:02:37;;;;;;;;;;;14.20;54.00;;;;;;5062311;27;78325;-65
2021/05/03 05:05:03;;;;;;;;;;;14.20;54.00;;;;;;5073414;27;74629;-65
2021/05/03 05:07:29;;;;;;;;;;;14.10;54.00;;;;;;5073670;27;76756;-62
2021/05/03 05:09:55;;;;;;;;;;;14.10;53.90;;;;;;5073052;27;74947;-63
2021/05/03 05:12:21;;;;;;;;;;;14.10;54.20;;;;;;5069608;27;75865;-61
2021/05/03 05:14:47;;;;;;;;;;;14.10;54.10;;;;;;5071161;27;74664;-65
2021/05/03 05:17:12;;;;;;;;;;;14.10;54.30;;;;;;5071104;27;75219;-62
2021/05/03 05:19:38;;;;;;;;;;;14.10;54.30;;;;;;5068974;27;76044;-63
2021/05/03 05:22:04;;;;;;;;;;;14.10;54.30;;;;;;5069389;27;77543;-60
2021/05/03 05:24:30;;;;;;;;;;;14.10;54.70;;;;;;5071570;27;75367;-63
2021/05/03 05:26:55;;;;;;;;;;;14.10;54.50;;;;;;5073369;27;75674;-63
2021/05/03 05:29:24;;;;;;;;;;;14.10;54.50;;;;;;5071819;27;76473;-62
2021/05/03 05:31:50;;;;;;;;;;;14.20;54.30;;;;;;5071455;27;75725;-63
2021/05/03 05:34:16;;;;;;;;;;;14.20;54.40;;;;;;5073184;27;74958;-60
2021/05/03 05:36:42;;;;;;;;;;;14.20;54.30;;;;;;5073393;27;74541;-68
2021/05/03 05:39:07;;;;;;;;;;;14.20;54.30;;;;;;5071757;27;77359;-64
2021/05/03 05:41:33;;;;;;;;;;;14.20;54.20;;;;;;5073154;27;74386;-68
2021/05/03 05:43:59;;;;;;;;;;;14.10;54.30;;;;;;5071525;27;76792;-66
2021/05/03 05:46:24;;;;;;;;;;;14.10;54.40;;;;;;5073170;27;75168;-63
2021/05/03 05:48:50;;;;;;;;;;;14.10;54.40;;;;;;5070993;27;76609;-62
2021/05/03 05:51:16;;;;;;;;;;;14.20;54.50;;;;;;5072772;27;75767;-64
2021/05/03 05:53:41;;;;;;;;;;;14.20;54.50;;;;;;5072821;27;75323;-60
2021/05/03 05:56:07;;;;;;;;;;;14.10;54.40;;;;;;5071503;27;75858;-68
2021/05/03 05:58:33;;;;;;;;;;;14.10;54.50;;;;;;5071087;27;77722;-60
2021/05/03 06:00:59;;;;;;;;;;;14.10;54.60;;;;;;5071350;27;77859;-63
2021/05/03 06:03:25;;;;;;;;;;;14.10;54.60;;;;;;5071107;27;77796;-64
2021/05/03 06:05:51;;;;;;;;;;;14.10;54.60;;;;;;5070852;27;77920;-61
2021/05/03 06:08:19;;;;;;;;;;;14.20;54.50;;;;;;5071127;27;76406;-61
2021/05/03 06:10:45;;;;;;;;;;;14.20;54.60;;;;;;5070795;27;77158;-63
2021/05/03 06:13:11;;;;;;;;;;;14.20;54.60;;;;;;5073137;27;74481;-64
2021/05/03 06:15:37;;;;;;;;;;;14.20;54.50;;;;;;5072706;27;75067;-64
2021/05/03 06:18:04;;;;;;;;;;;14.20;54.70;;;;;;5070623;27;77347;-69
2021/05/03 06:20:29;;;;;;;;;;;14.30;54.60;;;;;;5073022;27;75725;-61
2021/05/03 06:23:02;;;;;;;;;;;14.20;54.60;;;;;;5072568;27;75224;-61
2021/05/03 06:25:28;;;;;;;;;;;14.30;54.60;;;;;;5071239;27;74797;-61
2021/05/03 06:27:54;;;;;;;;;;;14.30;54.50;;;;;;5070697;27;77469;-61
2021/05/03 06:30:21;;;;;;;;;;;14.30;54.50;;;;;;5072669;27;75258;-67
2021/05/03 06:32:47;;;;;;;;;;;14.30;54.60;;;;;;5072421;27;74857;-62
2021/05/03 06:35:12;;;;;;;;;;;14.20;54.40;;;;;;5072251;27;75134;-61
2021/05/03 06:37:38;;;;;;;;;;;14.20;54.60;;;;;;5072526;27;75729;-60
2021/05/03 06:40:04;;;;;;;;;;;14.20;54.70;;;;;;5070802;27;78353;-60
2021/05/03 06:42:29;;;;;;;;;;;14.20;54.80;;;;;;5072730;27;74515;-61
2021/05/03 06:44:55;;;;;;;;;;;14.20;54.90;;;;;;5072330;27;75133;-64
2021/05/03 06:47:20;;;;;;;;;;;14.20;54.80;;;;;;5072743;27;74614;-60
2021/05/03 06:49:46;;;;;;;;;;;14.20;54.90;;;;;;5070511;27;77150;-62
2021/05/03 06:52:11;;;;;;;;;;;14.20;55.00;;;;;;5071986;27;75728;-62
2021/05/03 06:54:37;;;;;;;;;;;14.30;54.90;;;;;;5070505;27;76351;-66
2021/05/03 06:57:03;;;;;;;;;;;14.30;54.80;;;;;;5070414;27;78060;-68
2021/05/03 06:59:28;;;;;;;;;;;14.30;54.90;;;;;;5070712;27;78186;-69
2021/05/03 07:01:54;;;;;;;;;;;14.30;54.90;;;;;;5070367;27;75726;-66
2021/05/03 07:04:20;;;;;;;;;;;14.30;54.80;;;;;;5075452;27;74523;-67
2021/05/03 07:06:45;;;;;;;;;;;14.30;54.70;;;;;;5075568;27;75327;-66
2021/05/03 07:09:11;;;;;;;;;;;14.20;54.70;;;;;;5073828;27;75396;-72
2021/05/03 07:11:37;;;;;;;;;;;14.30;54.80;;;;;;5073886;27;77138;-70
2021/05/03 07:14:03;;;;;;;;;;;14.40;54.90;;;;;;5075184;27;75221;-69
2021/05/03 07:16:28;;;;;;;;;;;14.40;54.90;;;;;;5074113;27;77212;-69
2021/05/03 07:18:54;;;;;;;;;;;14.40;54.70;;;;;;5075294;27;75184;-69
2021/05/03 07:21:19;;;;;;;;;;;14.40;54.70;;;;;;5073652;27;74846;-69
2021/05/03 07:23:48;;;;;;;;;;;14.40;54.80;;;;;;5071645;27;77170;-68
2021/05/03 07:26:14;;;;;;;;;;;14.40;54.60;;;;;;5071456;27;77291;-66
2021/05/03 07:28:40;;;;;;;;;;;14.40;54.70;;;;;;5072999;27;75653;-66
2021/05/03 07:31:07;;;;;;;;;;;14.40;54.70;;;;;;5073073;27;76106;-65
2021/05/03 07:33:33;;;;;;;;;;;14.40;54.80;;;;;;5072618;27;74845;-68
2021/05/03 07:35:58;;;;;;;;;;;14.40;54.70;;;;;;5073527;27;75133;-68
2021/05/03 07:38:24;;;;;;;;;;;14.40;54.90;;;;;;5073807;27;75276;-74
2021/05/03 07:40:50;;;;;;;;;;;14.40;55.00;;;;;;5073586;27;75772;-67
2021/05/03 07:43:16;;;;;;;;;;;14.40;55.00;;;;;;5071208;27;74790;-64
2021/05/03 07:45:42;;;;;;;;;;;14.40;54.80;;;;;;5071808;27;75651;-68
2021/05/03 07:48:08;;;;;;;;;;;14.30;54.90;;;;;;5073077;27;75020;-67
2021/05/03 07:50:33;;;;;;;;;;;14.30;55.00;;;;;;5067463;27;75592;-66
2021/05/03 07:52:59;;;;;;;;;;;14.30;55.10;;;;;;5053378;28;74696;-67
2021/05/03 07:55:25;;;;;;;;;;;14.30;55.20;;;;;;5054511;28;75770;-65
2021/05/03 07:57:51;;;;;;;;;;;14.30;55.30;;;;;;5053784;27;75226;-70
2021/05/03 08:00:18;;;;;;;;;;;14.40;55.10;;;;;;5054607;28;75509;-66
2021/05/03 08:02:43;;;;;;;;;;;14.40;54.90;;;;;;5064456;27;75368;-72
2021/05/03 08:05:09;;;;;;;;;;;14.40;54.90;;;;;;5072463;27;76938;-69
2021/05/03 08:07:35;;;;;;;;;;;14.40;54.90;;;;;;5073125;27;77052;-69
2021/05/03 08:10:01;;;;;;;;;;;14.40;54.70;;;;;;5074586;27;75148;-68
2021/05/03 08:12:28;;;;;;;;;;;14.50;54.90;;;;;;5073042;27;77686;-67
2021/05/03 08:14:54;;;;;;;;;;;14.50;54.60;;;;;;5075021;27;74423;-65
2021/05/03 08:17:20;;;;;;;;;;;14.60;54.60;;;;;;5074802;27;74528;-70
2021/05/03 08:19:46;;;;;;;;;;;14.60;54.50;;;;;;5072977;27;74472;-71
2021/05/03 08:22:12;;;;;;;;;;;14.60;54.30;;;;;;5072933;27;75756;-71
2021/05/03 08:24:38;;;;;;;;;;;14.70;54.50;;;;;;5073150;27;75519;-67
2021/05/03 08:27:05;;;;;;;;;;;14.80;54.20;;;;;;5071977;27;75644;-71
2021/05/03 08:29:31;;;;;;;;;;;14.90;54.40;;;;;;5071404;27;76741;-67
2021/05/03 08:31:57;;;;;;;;;;;14.90;54.00;;;;;;5072519;27;76723;-70
2021/05/03 08:34:23;;;;;;;;;;;15.00;53.80;;;;;;5072130;27;76545;-70
2021/05/03 08:36:52;;;;;;;;;;;15.10;53.70;;;;;;5072908;27;75801;-71
2021/05/03 08:39:19;;;;;;;;;;;15.30;53.40;;;;;;5072813;27;77250;-67
2021/05/03 08:41:45;;;;;;;;;;;15.40;52.90;;;;;;5073078;27;75280;-71
2021/05/03 08:44:11;;;;;;;;;;;15.50;52.60;;;;;;5072896;27;75466;-71
2021/05/03 08:46:43;;;;;;;;;;;15.60;52.30;;;;;;5072465;27;75332;-72
2021/05/03 08:51:50;;;;;;;;;;;15.90;51.70;;;;;;5071832;27;75101;-70
2021/05/03 08:57:00;;;;;;;;;;;16.00;51.30;;;;;;5071207;27;75048;-70
2021/05/03 08:59:26;;;;;;;;;;;16.00;51.20;;;;;;5074495;27;74349;-72
2021/05/03 09:01:54;;;;;;;;;;;16.00;51.50;;;;;;5074464;27;75203;-68
2021/05/03 09:04:20;;;;;;;;;;;16.10;51.40;;;;;;5071575;27;77191;-67
2021/05/03 09:07:04;;;;;;;;;;;16.10;51.50;;;;;;5072392;27;76207;-71
2021/05/03 09:09:34;;;;;;;;;;;16.10;51.30;;;;;;5072486;27;76915;-70
2021/05/03 09:12:03;;;;;;;;;;;16.20;51.20;;;;;;5072624;27;94743;-68
2021/05/03 09:14:30;;;;;;;;;;;16.30;50.90;;;;;;5073762;27;75749;-72
2021/05/03 09:16:55;;;;;;;;;;;16.40;50.90;;;;;;5072295;27;75993;-67
2021/05/03 09:19:21;;;;;;;;;;;16.40;50.80;;;;;;5072056;27;77425;-67
2021/05/03 09:21:47;;;;;;;;;;;16.40;50.50;;;;;;5073833;27;74558;-68
2021/05/03 09:24:17;;;;;;;;;;;16.40;50.60;;;;;;5072179;27;74897;-72
2021/05/03 09:26:49;;;;;;;;;;;16.40;50.70;;;;;;5073221;27;75555;-69
2021/05/03 09:29:25;;;;;;;;;;;16.40;50.70;;;;;;5073930;27;75262;-72
2021/05/03 09:32:01;;;;;;;;;;;16.40;50.80;;;;;;5073500;27;75184;-72
2021/05/03 09:34:31;;;;;;;;;;;16.40;50.60;;;;;;5073421;27;75516;-67
2021/05/03 09:37:17;;;;;;;;;;;16.30;50.90;;;;;;5071877;27;77129;-72
2021/05/03 09:39:43;;;;;;;;;;;16.40;51.10;;;;;;5073710;27;75319;-69
2021/05/03 09:42:09;;;;;;;;;;;16.40;50.90;;;;;;5073474;27;75211;-69
2021/05/03 09:44:35;;;;;;;;;;;16.60;50.70;;;;;;5071707;27;75843;-70
2021/05/03 09:47:01;;;;;;;;;;;16.70;50.30;;;;;;5072173;27;75568;-70
2021/05/03 09:49:28;;;;;;;;;;;16.90;50.20;;;;;;5071697;27;76575;-71
2021/05/03 09:51:57;;;;;;;;;;;17.20;49.90;;;;;;5072001;27;74635;-70
2021/05/03 09:54:27;;;;;;;;;;;17.50;49.20;;;;;;5072106;27;77010;-73
2021/05/03 09:56:53;;;;;;;;;;;18.00;48.30;;;;;;5073527;27;74541;-70
2021/05/03 09:59:25;;;;;;;;;;;18.20;47.60;;;;;;5071882;27;75778;-70
2021/05/03 10:02:13;;;;;;;;;;;18.40;47.20;;;;;;5072983;27;75284;-67
2021/05/03 10:05:16;;;;;;;;;;;18.70;46.80;;;;;;5071359;27;74724;-67
2021/05/03 10:07:50;;;;;;;;;;;18.90;46.30;;;;;;5071301;27;77159;-69
2021/05/03 10:10:22;;;;;;;;;;;18.90;45.90;;;;;;5071690;27;75391;-66
2021/05/03 10:12:48;;;;;;;;;;;18.90;46.00;;;;;;5071382;27;75584;-70
2021/05/03 10:15:15;;;;;;;;;;;19.00;46.20;;;;;;5071547;27;77087;-70
2021/05/03 10:17:42;;;;;;;;;;;19.00;45.80;;;;;;5071500;27;77173;-67
2021/05/03 10:20:08;;;;;;;;;;;19.20;45.90;;;;;;5073037;27;75396;-72
2021/05/03 10:22:34;;;;;;;;;;;19.60;45.50;;;;;;5073487;27;74514;-72
2021/05/03 10:25:18;;;;;;;;;;;19.80;44.70;;;;;;5072857;27;75756;-70
2021/05/03 10:27:48;;;;;;;;;;;19.80;44.60;;;;;;5073153;27;75187;-71
2021/05/03 10:30:16;;;;;;;;;;;19.70;44.40;;;;;;5071142;27;75443;-68
2021/05/03 10:32:44;;;;;;;;;;;19.60;44.80;;;;;;5071022;27;75013;-71
2021/05/03 10:35:26;;;;;;;;;;;19.50;45.20;;;;;;5071065;27;77324;-71
2021/05/03 10:37:52;;;;;;;;;;;19.70;45.30;;;;;;5072443;27;76068;-71
2021/05/03 10:40:18;;;;;;;;;;;20.10;44.30;;;;;;5074633;27;75672;-68
2021/05/03 10:43:06;;;;;;;;;;;20.20;44.00;;;;;;5076531;27;75190;-71
2021/05/03 10:48:35;;;;;;;;;;;19.90;44.30;;;;;;5075890;27;74568;-68
2021/05/03 10:51:03;;;;;;;;;;;19.80;44.80;;;;;;5074605;27;75685;-70
2021/05/03 10:53:42;;;;;;;;;;;19.80;44.80;;;;;;5075978;27;74619;-68
2021/05/03 10:56:09;;;;;;;;;;;19.80;44.70;;;;;;5074617;27;77591;-69
2021/05/03 10:58:53;;;;;;;;;;;19.70;44.80;;;;;;5074563;27;76490;-68
2021/05/03 11:01:19;;;;;;;;;;;19.60;45.20;;;;;;5074395;27;77385;-69
2021/05/03 11:03:57;;;;;;;;;;;19.50;45.50;;;;;;5074211;27;77928;-68
2021/05/03 11:06:49;;;;;;;;;;;19.40;45.90;;;;;;5075771;27;75191;-68
2021/05/03 11:09:36;;;;;;;;;;;19.40;45.80;;;;;;5052927;27;75765;-67
2021/05/03 11:12:05;;;;;;;;;;;19.50;45.10;;;;;;5050853;28;74781;-70
2021/05/03 11:14:32;;;;;;;;;;;19.70;45.20;;;;;;5054928;27;75700;-68
2021/05/03 11:17:01;;;;;;;;;;;19.80;44.80;;;;;;5053147;28;77373;-70
2021/05/03 11:22:22;;;;;;;;;;;19.90;44.60;;;;;;5054199;27;75042;-69
2021/05/03 11:25:08;;;;;;;;;;;19.90;44.50;;;;;;5055361;28;75322;-67
2021/05/03 11:27:46;;;;;;;;;;;20.00;44.60;;;;;;5055008;28;75463;-70
2021/05/03 11:30:59;;;;;;;;;;;20.00;44.40;;;;;;5053474;28;76543;-70
2021/05/03 11:33:05;;;;;;;;;;;20.00;44.40;;;;;;5056505;27;75674;-71
2021/05/03 11:35:53;;;;;;;;;;;20.00;44.40;;;;;;5075255;27;75243;-70
2021/05/03 11:38:49;;;;;;;;;;;19.80;44.60;;;;;;5073725;27;75542;-71
2021/05/03 11:46:26;;;;;;;;;;;19.70;44.90;;;;;;5048801;28;75000;-68
2021/05/03 11:48:52;;;;;;;;;;;19.60;45.00;;;;;;5049400;27;77071;-70
2021/05/03 11:51:18;;;;;;;;;;;19.50;45.10;;;;;;5051399;28;77804;-68
2021/05/03 11:53:45;;;;;;;;;;;19.40;45.50;;;;;;5051606;28;75271;-68
2021/05/03 11:56:21;;;;;;;;;;;19.30;45.50;;;;;;5051365;28;76430;-70
2021/05/03 11:58:48;;;;;;;;;;;19.10;45.90;;;;;;5050404;28;75419;-68
2021/05/03 12:01:18;;;;;;;;;;;18.90;46.30;;;;;;5051385;28;76442;-68
2021/05/03 12:03:44;;;;;;;;;;;18.90;46.30;;;;;;5053508;27;74725;-68
2021/05/03 12:06:10;;;;;;;;;;;19.00;46.40;;;;;;5052456;28;74911;-70
2021/05/03 12:08:37;;;;;;;;;;;19.20;46.30;;;;;;5051127;28;77590;-70
2021/05/03 12:11:07;;;;;;;;;;;19.40;45.80;;;;;;5048397;28;75354;-70
2021/05/03 12:13:32;;;;;;;;;;;19.60;45.40;;;;;;5054110;28;75722;-70
2021/05/03 12:15:58;;;;;;;;;;;19.70;45.20;;;;;;5052555;28;77327;-71
2021/05/03 12:18:24;;;;;;;;;;;19.60;45.20;;;;;;5052504;28;76536;-68
2021/05/03 12:20:51;;;;;;;;;;;19.70;45.30;;;;;;5054096;28;74966;-69
2021/05/03 12:23:16;;;;;;;;;;;19.90;44.90;;;;;;5052409;28;75580;-71
2021/05/03 12:28:13;;;;;;;;;;;21.30;43.70;;;;;;5050876;28;74944;-71
2021/05/03 12:30:39;;;;;;;;;;;23.80;40.10;;;;;;5052546;28;78559;-70
2021/05/03 12:33:17;;;;;;;;;;;25.90;36.20;;;;;;5066883;27;76003;-70
2021/05/03 12:35:43;;;;;;;;;;;29.00;32.00;;;;;;5072119;27;76414;-69
2021/05/03 12:38:15;;;;;;;;;;;30.50;29.30;;;;;;5042896;27;74967;-72
2021/05/03 12:40:40;;;;;;;;;;;31.40;28.40;;;;;;5032359;28;75141;-72
2021/05/03 12:43:07;;;;;;;;;;;29.60;29.60;;;;;;5031632;28;76953;-71
2021/05/03 12:45:44;;;;;;;;;;;27.50;31.90;;;;;;5032495;28;77224;-71
2021/05/03 12:51:04;;;;;;;;;;;26.40;34.10;;;;;;5030576;28;75123;-70
2021/05/03 12:53:41;;;;;;;;;;;26.30;34.40;;;;;;5033544;28;75790;-71
2021/05/03 12:58:50;;;;;;;;;;;28.30;32.80;;;;;;5030924;28;74983;-68
2021/05/03 13:04:20;;;;;;;;;;;35.50;25.10;;;;;;5030171;28;74439;-69
2021/05/03 13:29:02;;;;;;;;;;;39.40;20.90;;;;;;5052705;28;75217;-68
2021/05/03 13:31:29;;;;;;;;;;;36.50;23.80;;;;;;5053306;28;75678;-69
2021/05/03 13:33:55;;;;;;;;;;;36.30;24.20;;;;;;5051750;28;77123;-70
2021/05/03 13:36:21;;;;;;;;;;;36.70;23.70;;;;;;5053298;27;75854;-69
2021/05/03 13:38:48;;;;;;;;;;;36.40;23.50;;;;;;5053501;28;75075;-69
2021/05/03 13:41:14;;;;;;;;;;;36.90;23.10;;;;;;5053529;28;74510;-69
2021/05/03 13:43:40;;;;;;;;;;;38.50;22.30;;;;;;5053158;28;75239;-69
2021/05/03 13:46:05;;;;;;;;;;;39.10;21.30;;;;;;5052930;28;74510;-70
2021/05/03 13:48:31;;;;;;;;;;;37.90;22.80;;;;;;5051593;28;77075;-69
2021/05/03 13:50:56;;;;;;;;;;;36.90;23.60;;;;;;5085494;27;74523;-69
2021/05/03 13:53:22;;;;;;;;;;;36.70;23.80;;;;;;5051779;28;75916;-69
2021/05/03 13:55:48;;;;;;;;;;;38.80;22.20;;;;;;5051264;28;77717;-72
2021/05/03 13:58:14;;;;;;;;;;;40.90;20.80;;;;;;5053583;28;74684;-69
2021/05/03 14:00:39;;;;;;;;;;;42.40;19.30;;;;;;5052953;28;75111;-70
2021/05/03 14:03:05;;;;;;;;;;;42.90;18.70;;;;;;5052566;28;75217;-71
2021/05/03 14:05:31;;;;;;;;;;;40.20;20.40;;;;;;5050921;28;76998;-70
2021/05/03 14:07:56;;;;;;;;;;;37.50;21.90;;;;;;5052643;27;75051;-70
2021/05/03 14:10:22;;;;;;;;;;;37.50;22.70;;;;;;5051538;28;75371;-71
2021/05/03 14:12:47;;;;;;;;;;;37.40;22.70;;;;;;5055913;27;77091;-72
2021/05/03 14:15:18;;;;;;;;;;;38.70;21.70;;;;;;5059372;28;75354;-76
2021/05/03 14:17:43;;;;;;;;;;;39.60;21.40;;;;;;5058321;28;75457;-75
2021/05/03 14:20:10;;;;;;;;;;;38.10;22.00;;;;;;5059319;28;75337;-70
2021/05/03 14:22:35;;;;;;;;;;;39.40;20.60;;;;;;5057720;28;75241;-72
2021/05/03 14:25:01;;;;;;;;;;;38.00;20.80;;;;;;5057761;28;75458;-70
2021/05/03 14:27:27;;;;;;;;;;;35.50;23.50;;;;;;5057902;28;74565;-74
2021/05/03 14:29:56;;;;;;;;;;;33.30;25.00;;;;;;5059242;28;75202;-71
2021/05/03 14:32:31;;;;;;;;;;;31.40;27.30;;;;;;5057525;28;76893;-73
2021/05/03 14:35:05;;;;;;;;;;;30.00;27.70;;;;;;5057698;28;76013;-70
2021/05/03 14:37:31;;;;;;;;;;;28.90;29.30;;;;;;5057503;27;75273;-72
2021/05/03 14:39:57;;;;;;;;;;;28.50;29.70;;;;;;5059175;28;75773;-71
2021/05/03 14:42:22;;;;;;;;;;;28.10;30.20;;;;;;5057611;28;76822;-77
2021/05/03 14:44:48;;;;;;;;;;;29.30;29.90;;;;;;5059106;28;74327;-75
2021/05/03 14:47:19;;;;;;;;;;;32.20;26.90;;;;;;5059398;28;75211;-71
2021/05/03 14:55:08;;;;;;;;;;;33.50;23.90;;;;;;5049398;28;75744;-73
2021/05/03 14:57:34;;;;;;;;;;;31.60;26.20;;;;;;5057238;28;76339;-80
2021/05/03 15:00:00;;;;;;;;;;;30.10;27.50;;;;;;5057034;28;75428;-75
2021/05/03 15:02:25;;;;;;;;;;;29.00;28.50;;;;;;5058576;27;75346;-79
2021/05/03 15:04:51;;;;;;;;;;;28.10;29.70;;;;;;5056491;27;75349;-81
2021/05/03 15:07:18;;;;;;;;;;;27.20;30.20;;;;;;5057239;27;75254;-74
2021/05/03 15:09:47;;;;;;;;;;;26.40;31.50;;;;;;5058728;28;75100;-72
2021/05/03 15:12:38;;;;;;;;;;;25.90;32.10;;;;;;5058527;28;74589;-72
2021/05/03 15:15:15;;;;;;;;;;;25.40;32.90;;;;;;5058246;28;75604;-82
2021/05/03 15:23:07;;;;;;;;;;;24.70;33.50;;;;;;5044588;27;75543;-71
2021/05/03 15:25:35;;;;;;;;;;;24.60;33.70;;;;;;5054026;28;76374;-81
2021/05/03 15:28:27;;;;;;;;;;;24.60;33.80;;;;;;5053319;28;74809;-72
2021/05/03 15:31:06;;;;;;;;;;;24.50;34.00;;;;;;5053769;28;77825;-74
2021/05/03 15:33:35;;;;;;;;;;;24.40;34.10;;;;;;5087134;27;77489;-79
2021/05/03 15:36:04;;;;;;;;;;;24.20;33.80;;;;;;5055216;28;75578;-79